sensor_id;sensor_type;location;lat;lon;timestamp;temperature;humidity
14875;DHT22;7529;48.170;17.138;2022-08-21T00:03:25;19.10;91.60
14875;DHT22;7529;48.170;17.138;2022-08-21T00:07:37;19.10;91.80
14875;DHT22;7529;48.170;17.138;2022-08-21T00:11:48;19.00;91.90
14875;DHT22;7529;48.170;17.138;2022-08-21T00:16:00;19.00;92.60
14875;DHT22;7529;48.170;17.138;2022-08-21T00:20:14;19.00;92.80
14875;DHT22;7529;48.170;17.138;2022-08-21T00:24:27;19.00;92.90
14875;DHT22;7529;48.170;17.138;2022-08-21T00:28:38;19.00;92.90
14875;DHT22;7529;48.170;17.138;2022-08-21T00:32:51;19.00;93.50
14875;DHT22;7529;48.170;17.138;2022-08-21T00:37:04;19.00;93.40
14875;DHT22;7529;48.170;17.138;2022-08-21T00:41:16;19.10;93.30
14875;DHT22;7529;48.170;17.138;2022-08-21T00:45:27;19.10;93.20
14875;DHT22;7529;48.170;17.138;2022-08-21T00:49:39;19.10;93.30
14875;DHT22;7529;48.170;17.138;2022-08-21T00:53:56;19.10;93.20
14875;DHT22;7529;48.170;17.138;2022-08-21T00:58:11;19.10;93.10
14875;DHT22;7529;48.170;17.138;2022-08-21T01:02:25;19.10;93.10
14875;DHT22;7529;48.170;17.138;2022-08-21T01:06:37;19.10;93.30
14875;DHT22;7529;48.170;17.138;2022-08-21T01:10:49;19.00;93.40
14875;DHT22;7529;48.170;17.138;2022-08-21T01:15:04;19.00;93.30
14875;DHT22;7529;48.170;17.138;2022-08-21T01:19:18;19.00;93.50
14875;DHT22;7529;48.170;17.138;2022-08-21T01:23:32;18.90;93.70
14875;DHT22;7529;48.170;17.138;2022-08-21T01:27:45;18.90;93.60
14875;DHT22;7529;48.170;17.138;2022-08-21T01:31:58;18.90;93.60
14875;DHT22;7529;48.170;17.138;2022-08-21T01:36:09;18.80;93.80
14875;DHT22;7529;48.170;17.138;2022-08-21T01:40:21;18.80;93.80
14875;DHT22;7529;48.170;17.138;2022-08-21T01:44:33;18.80;94.10
14875;DHT22;7529;48.170;17.138;2022-08-21T01:48:45;18.70;94.20
14875;DHT22;7529;48.170;17.138;2022-08-21T01:52:56;18.60;94.40
14875;DHT22;7529;48.170;17.138;2022-08-21T01:57:08;18.60;94.30
14875;DHT22;7529;48.170;17.138;2022-08-21T02:01:20;18.60;95.10
14875;DHT22;7529;48.170;17.138;2022-08-21T02:05:32;18.60;95.00
14875;DHT22;7529;48.170;17.138;2022-08-21T02:09:43;18.50;94.90
14875;DHT22;7529;48.170;17.138;2022-08-21T02:13:55;18.50;95.10
14875;DHT22;7529;48.170;17.138;2022-08-21T02:18:06;18.50;95.30
14875;DHT22;7529;48.170;17.138;2022-08-21T02:22:18;18.50;95.60
14875;DHT22;7529;48.170;17.138;2022-08-21T02:26:29;18.40;95.50
14875;DHT22;7529;48.170;17.138;2022-08-21T02:30:45;18.40;95.70
14875;DHT22;7529;48.170;17.138;2022-08-21T02:34:58;18.40;96.00
14875;DHT22;7529;48.170;17.138;2022-08-21T02:39:09;18.40;96.30
14875;DHT22;7529;48.170;17.138;2022-08-21T02:43:23;18.30;96.50
14875;DHT22;7529;48.170;17.138;2022-08-21T02:47:37;18.30;96.70
14875;DHT22;7529;48.170;17.138;2022-08-21T02:51:48;18.30;96.70
14875;DHT22;7529;48.170;17.138;2022-08-21T02:56:02;18.30;96.90
14875;DHT22;7529;48.170;17.138;2022-08-21T03:00:16;18.40;97.10
14875;DHT22;7529;48.170;17.138;2022-08-21T03:04:28;18.30;97.20
14875;DHT22;7529;48.170;17.138;2022-08-21T03:08:39;18.30;97.70
14875;DHT22;7529;48.170;17.138;2022-08-21T03:12:51;18.30;97.80
14875;DHT22;7529;48.170;17.138;2022-08-21T03:17:03;18.30;97.80
14875;DHT22;7529;48.170;17.138;2022-08-21T03:21:14;18.30;98.00
14875;DHT22;7529;48.170;17.138;2022-08-21T03:25:27;18.30;98.30
14875;DHT22;7529;48.170;17.138;2022-08-21T03:29:40;18.30;98.50
14875;DHT22;7529;48.170;17.138;2022-08-21T03:33:51;18.30;98.40
14875;DHT22;7529;48.170;17.138;2022-08-21T03:38:06;18.30;98.90
14875;DHT22;7529;48.170;17.138;2022-08-21T03:42:17;18.30;98.90
14875;DHT22;7529;48.170;17.138;2022-08-21T03:46:29;18.20;99.10
14875;DHT22;7529;48.170;17.138;2022-08-21T03:50:42;18.20;99.30
14875;DHT22;7529;48.170;17.138;2022-08-21T03:54:56;18.30;99.60
14875;DHT22;7529;48.170;17.138;2022-08-21T03:59:08;18.30;99.50
14875;DHT22;7529;48.170;17.138;2022-08-21T04:03:20;18.30;99.70
14875;DHT22;7529;48.170;17.138;2022-08-21T04:07:32;18.30;99.70
14875;DHT22;7529;48.170;17.138;2022-08-21T04:11:44;18.30;99.90
14875;DHT22;7529;48.170;17.138;2022-08-21T04:15:57;18.30;99.90
14875;DHT22;7529;48.170;17.138;2022-08-21T04:20:11;18.30;99.90
14875;DHT22;7529;48.170;17.138;2022-08-21T04:24:23;18.30;99.90
14875;DHT22;7529;48.170;17.138;2022-08-21T04:28:35;18.30;99.90
14875;DHT22;7529;48.170;17.138;2022-08-21T04:32:49;18.30;99.90
14875;DHT22;7529;48.170;17.138;2022-08-21T04:37:01;18.40;99.90
14875;DHT22;7529;48.170;17.138;2022-08-21T04:41:13;18.40;99.90
14875;DHT22;7529;48.170;17.138;2022-08-21T04:45:33;18.50;99.90
14875;DHT22;7529;48.170;17.138;2022-08-21T04:49:47;18.60;99.90
14875;DHT22;7529;48.170;17.138;2022-08-21T04:54:09;18.60;99.90
14875;DHT22;7529;48.170;17.138;2022-08-21T04:58:24;18.60;99.90
14875;DHT22;7529;48.170;17.138;2022-08-21T05:02:37;18.60;99.80
14875;DHT22;7529;48.170;17.138;2022-08-21T05:06:51;18.60;99.90
14875;DHT22;7529;48.170;17.138;2022-08-21T05:11:04;18.60;99.80
14875;DHT22;7529;48.170;17.138;2022-08-21T05:15:17;18.60;99.90
14875;DHT22;7529;48.170;17.138;2022-08-21T05:19:28;18.60;99.80
14875;DHT22;7529;48.170;17.138;2022-08-21T05:23:40;18.70;99.70
14875;DHT22;7529;48.170;17.138;2022-08-21T05:27:51;18.80;99.50
14875;DHT22;7529;48.170;17.138;2022-08-21T05:32:11;18.90;99.40
14875;DHT22;7529;48.170;17.138;2022-08-21T05:36:24;19.00;99.10
14875;DHT22;7529;48.170;17.138;2022-08-21T05:40:36;19.10;98.60
14875;DHT22;7529;48.170;17.138;2022-08-21T05:44:47;19.20;98.20
14875;DHT22;7529;48.170;17.138;2022-08-21T05:48:59;19.30;97.80
14875;DHT22;7529;48.170;17.138;2022-08-21T05:53:11;19.40;97.40
14875;DHT22;7529;48.170;17.138;2022-08-21T05:57:24;19.50;97.10
14875;DHT22;7529;48.170;17.138;2022-08-21T06:01:36;19.60;96.70
14875;DHT22;7529;48.170;17.138;2022-08-21T06:05:47;19.70;96.20
14875;DHT22;7529;48.170;17.138;2022-08-21T06:09:59;19.70;95.80
14875;DHT22;7529;48.170;17.138;2022-08-21T06:14:14;19.80;95.60
14875;DHT22;7529;48.170;17.138;2022-08-21T06:18:25;19.90;95.30
14875;DHT22;7529;48.170;17.138;2022-08-21T06:22:38;19.90;95.00
14875;DHT22;7529;48.170;17.138;2022-08-21T06:26:50;20.00;94.90
14875;DHT22;7529;48.170;17.138;2022-08-21T06:31:10;20.10;94.50
14875;DHT22;7529;48.170;17.138;2022-08-21T06:35:26;20.30;94.20
14875;DHT22;7529;48.170;17.138;2022-08-21T06:39:39;20.50;93.60
14875;DHT22;7529;48.170;17.138;2022-08-21T06:43:51;20.80;93.10
14875;DHT22;7529;48.170;17.138;2022-08-21T06:48:03;21.10;92.60
14875;DHT22;7529;48.170;17.138;2022-08-21T06:52:15;21.40;91.80
14875;DHT22;7529;48.170;17.138;2022-08-21T06:56:27;21.50;90.90
14875;DHT22;7529;48.170;17.138;2022-08-21T07:00:39;21.70;90.50
14875;DHT22;7529;48.170;17.138;2022-08-21T07:04:53;21.80;89.60
14875;DHT22;7529;48.170;17.138;2022-08-21T07:09:04;22.00;88.10
14875;DHT22;7529;48.170;17.138;2022-08-21T07:13:16;22.10;87.00
14875;DHT22;7529;48.170;17.138;2022-08-21T07:17:28;22.40;86.30
14875;DHT22;7529;48.170;17.138;2022-08-21T07:21:40;22.60;83.70
14875;DHT22;7529;48.170;17.138;2022-08-21T07:25:51;22.70;82.40
14875;DHT22;7529;48.170;17.138;2022-08-21T07:30:05;22.80;81.20
14875;DHT22;7529;48.170;17.138;2022-08-21T07:34:17;22.90;80.20
14875;DHT22;7529;48.170;17.138;2022-08-21T07:38:29;22.90;80.00
14875;DHT22;7529;48.170;17.138;2022-08-21T07:42:42;23.10;78.30
14875;DHT22;7529;48.170;17.138;2022-08-21T07:46:55;23.40;77.50
14875;DHT22;7529;48.170;17.138;2022-08-21T07:51:09;23.70;75.70
14875;DHT22;7529;48.170;17.138;2022-08-21T07:55:22;23.80;74.40
14875;DHT22;7529;48.170;17.138;2022-08-21T07:59:33;23.70;73.30
14875;DHT22;7529;48.170;17.138;2022-08-21T08:03:45;23.90;72.90
14875;DHT22;7529;48.170;17.138;2022-08-21T08:07:57;24.30;72.30
14875;DHT22;7529;48.170;17.138;2022-08-21T08:12:09;24.20;71.70
14875;DHT22;7529;48.170;17.138;2022-08-21T08:16:21;24.20;71.00
14875;DHT22;7529;48.170;17.138;2022-08-21T08:20:32;24.10;71.30
14875;DHT22;7529;48.170;17.138;2022-08-21T08:24:44;23.90;71.70
14875;DHT22;7529;48.170;17.138;2022-08-21T08:28:56;23.70;71.50
14875;DHT22;7529;48.170;17.138;2022-08-21T08:33:08;23.50;71.60
14875;DHT22;7529;48.170;17.138;2022-08-21T08:37:21;23.30;72.10
14875;DHT22;7529;48.170;17.138;2022-08-21T08:41:33;22.90;72.60
14875;DHT22;7529;48.170;17.138;2022-08-21T08:45:50;22.80;73.40
14875;DHT22;7529;48.170;17.138;2022-08-21T08:50:07;22.80;73.70
14875;DHT22;7529;48.170;17.138;2022-08-21T08:58:47;22.50;74.70
14875;DHT22;7529;48.170;17.138;2022-08-21T09:03:01;22.40;74.90
14875;DHT22;7529;48.170;17.138;2022-08-21T09:07:22;22.30;75.30
14875;DHT22;7529;48.170;17.138;2022-08-21T09:11:56;22.30;75.40
14875;DHT22;7529;48.170;17.138;2022-08-21T09:26:23;22.80;74.90
14875;DHT22;7529;48.170;17.138;2022-08-21T09:30:36;22.60;75.10
14875;DHT22;7529;48.170;17.138;2022-08-21T09:43:52;23.30;74.50
14875;DHT22;7529;48.170;17.138;2022-08-21T09:52:32;23.00;74.40
14875;DHT22;7529;48.170;17.138;2022-08-21T09:56:56;22.90;74.60
14875;DHT22;7529;48.170;17.138;2022-08-21T10:01:28;22.80;74.80
14875;DHT22;7529;48.170;17.138;2022-08-21T10:05:49;23.10;74.90
14875;DHT22;7529;48.170;17.138;2022-08-21T10:10:36;23.40;74.50
14875;DHT22;7529;48.170;17.138;2022-08-21T10:19:43;24.90;70.30
14875;DHT22;7529;48.170;17.138;2022-08-21T10:43:35;27.90;59.70
14875;DHT22;7529;48.170;17.138;2022-08-21T10:47:55;26.90;60.90
14875;DHT22;7529;48.170;17.138;2022-08-21T10:57:16;25.90;62.20
14875;DHT22;7529;48.170;17.138;2022-08-21T11:06:34;25.40;63.30
14875;DHT22;7529;48.170;17.138;2022-08-21T12:04:27;42.60;36.10
14875;DHT22;7529;48.170;17.138;2022-08-21T12:39:25;42.70;36.50
14875;DHT22;7529;48.170;17.138;2022-08-21T12:53:29;41.10;32.60
14875;DHT22;7529;48.170;17.138;2022-08-21T13:18:58;41.70;33.00
14875;DHT22;7529;48.170;17.138;2022-08-21T13:36:17;31.90;38.50
14875;DHT22;7529;48.170;17.138;2022-08-21T13:40:44;27.30;44.10
14875;DHT22;7529;48.170;17.138;2022-08-21T13:44:57;26.50;44.70
14875;DHT22;7529;48.170;17.138;2022-08-21T13:49:10;25.90;45.70
14875;DHT22;7529;48.170;17.138;2022-08-21T13:57:46;24.70;47.80
14875;DHT22;7529;48.170;17.138;2022-08-21T14:06:34;24.50;48.70
14875;DHT22;7529;48.170;17.138;2022-08-21T14:10:50;24.20;49.00
14875;DHT22;7529;48.170;17.138;2022-08-21T14:15:04;23.90;49.40
14875;DHT22;7529;48.170;17.138;2022-08-21T14:19:41;23.60;50.10
14875;DHT22;7529;48.170;17.138;2022-08-21T14:24:12;23.30;51.20
14875;DHT22;7529;48.170;17.138;2022-08-21T14:28:30;23.10;51.90
14875;DHT22;7529;48.170;17.138;2022-08-21T14:32:47;23.20;51.70
14875;DHT22;7529;48.170;17.138;2022-08-21T14:36:58;23.20;51.90
14875;DHT22;7529;48.170;17.138;2022-08-21T14:41:19;23.20;51.90
14875;DHT22;7529;48.170;17.138;2022-08-21T14:45:33;23.10;52.40
14875;DHT22;7529;48.170;17.138;2022-08-21T14:49:47;23.00;53.00
14875;DHT22;7529;48.170;17.138;2022-08-21T14:53:59;23.10;52.90
14875;DHT22;7529;48.170;17.138;2022-08-21T14:58:10;23.20;52.80
14875;DHT22;7529;48.170;17.138;2022-08-21T15:02:22;23.10;52.90
14875;DHT22;7529;48.170;17.138;2022-08-21T15:06:34;22.90;53.10
14875;DHT22;7529;48.170;17.138;2022-08-21T15:10:45;22.70;53.40
14875;DHT22;7529;48.170;17.138;2022-08-21T15:14:57;22.50;53.80
14875;DHT22;7529;48.170;17.138;2022-08-21T15:19:09;22.30;54.00
14875;DHT22;7529;48.170;17.138;2022-08-21T15:23:21;22.20;54.30
14875;DHT22;7529;48.170;17.138;2022-08-21T15:27:34;22.20;54.40
14875;DHT22;7529;48.170;17.138;2022-08-21T15:31:59;22.20;54.50
14875;DHT22;7529;48.170;17.138;2022-08-21T15:36:26;22.10;54.80
14875;DHT22;7529;48.170;17.138;2022-08-21T15:40:38;22.10;54.80
14875;DHT22;7529;48.170;17.138;2022-08-21T15:44:52;22.00;55.00
14875;DHT22;7529;48.170;17.138;2022-08-21T15:49:06;22.00;55.10
14875;DHT22;7529;48.170;17.138;2022-08-21T15:53:17;21.90;55.30
14875;DHT22;7529;48.170;17.138;2022-08-21T15:57:29;21.90;55.50
14875;DHT22;7529;48.170;17.138;2022-08-21T16:01:42;21.70;55.70
14875;DHT22;7529;48.170;17.138;2022-08-21T16:05:53;21.70;56.00
14875;DHT22;7529;48.170;17.138;2022-08-21T16:10:07;21.60;56.10
14875;DHT22;7529;48.170;17.138;2022-08-21T16:14:19;21.50;56.50
14875;DHT22;7529;48.170;17.138;2022-08-21T16:18:31;21.40;56.50
14875;DHT22;7529;48.170;17.138;2022-08-21T16:22:43;21.40;56.60
14875;DHT22;7529;48.170;17.138;2022-08-21T16:26:55;21.20;56.80
14875;DHT22;7529;48.170;17.138;2022-08-21T16:31:08;21.20;57.10
14875;DHT22;7529;48.170;17.138;2022-08-21T16:35:20;21.20;57.10
14875;DHT22;7529;48.170;17.138;2022-08-21T16:39:33;21.10;57.60
14875;DHT22;7529;48.170;17.138;2022-08-21T16:43:45;21.00;57.80
14875;DHT22;7529;48.170;17.138;2022-08-21T16:47:57;21.00;57.90
14875;DHT22;7529;48.170;17.138;2022-08-21T16:52:09;21.00;58.00
14875;DHT22;7529;48.170;17.138;2022-08-21T16:56:21;20.90;58.20
14875;DHT22;7529;48.170;17.138;2022-08-21T17:00:32;20.80;58.40
14875;DHT22;7529;48.170;17.138;2022-08-21T17:04:45;20.80;58.60
14875;DHT22;7529;48.170;17.138;2022-08-21T17:08:57;20.70;58.90
14875;DHT22;7529;48.170;17.138;2022-08-21T17:13:09;20.70;59.10
14875;DHT22;7529;48.170;17.138;2022-08-21T17:17:22;20.70;59.20
14875;DHT22;7529;48.170;17.138;2022-08-21T17:21:34;20.60;59.30
14875;DHT22;7529;48.170;17.138;2022-08-21T17:25:48;20.60;59.60
14875;DHT22;7529;48.170;17.138;2022-08-21T17:30:03;20.50;60.00
14875;DHT22;7529;48.170;17.138;2022-08-21T17:34:15;20.40;60.20
14875;DHT22;7529;48.170;17.138;2022-08-21T17:38:27;20.40;60.80
14875;DHT22;7529;48.170;17.138;2022-08-21T17:42:44;20.30;60.90
14875;DHT22;7529;48.170;17.138;2022-08-21T17:46:56;20.30;61.00
14875;DHT22;7529;48.170;17.138;2022-08-21T17:51:08;20.30;61.10
14875;DHT22;7529;48.170;17.138;2022-08-21T17:55:21;20.20;61.30
14875;DHT22;7529;48.170;17.138;2022-08-21T17:59:33;20.10;61.70
14875;DHT22;7529;48.170;17.138;2022-08-21T18:03:46;19.90;62.40
14875;DHT22;7529;48.170;17.138;2022-08-21T18:07:58;19.80;63.00
14875;DHT22;7529;48.170;17.138;2022-08-21T18:12:10;19.60;63.70
14875;DHT22;7529;48.170;17.138;2022-08-21T18:16:23;19.50;64.30
14875;DHT22;7529;48.170;17.138;2022-08-21T18:20:34;19.30;64.80
14875;DHT22;7529;48.170;17.138;2022-08-21T18:24:46;19.10;65.80
14875;DHT22;7529;48.170;17.138;2022-08-21T18:28:59;19.00;66.40
14875;DHT22;7529;48.170;17.138;2022-08-21T18:33:12;18.80;66.90
14875;DHT22;7529;48.170;17.138;2022-08-21T18:37:24;18.70;67.80
14875;DHT22;7529;48.170;17.138;2022-08-21T18:41:36;18.50;68.40
14875;DHT22;7529;48.170;17.138;2022-08-21T18:45:47;18.40;68.80
14875;DHT22;7529;48.170;17.138;2022-08-21T18:50:00;18.30;69.30
14875;DHT22;7529;48.170;17.138;2022-08-21T18:54:12;18.20;70.50
14875;DHT22;7529;48.170;17.138;2022-08-21T18:58:24;18.10;71.40
14875;DHT22;7529;48.170;17.138;2022-08-21T19:02:36;18.00;72.00
14875;DHT22;7529;48.170;17.138;2022-08-21T19:06:48;17.90;73.10
14875;DHT22;7529;48.170;17.138;2022-08-21T19:11:00;17.90;73.60
14875;DHT22;7529;48.170;17.138;2022-08-21T19:15:15;17.80;74.50
14875;DHT22;7529;48.170;17.138;2022-08-21T19:19:29;17.70;75.10
14875;DHT22;7529;48.170;17.138;2022-08-21T19:23:41;17.70;76.50
14875;DHT22;7529;48.170;17.138;2022-08-21T19:27:54;17.70;77.00
14875;DHT22;7529;48.170;17.138;2022-08-21T19:32:06;17.70;77.30
14875;DHT22;7529;48.170;17.138;2022-08-21T19:36:19;17.60;77.80
14875;DHT22;7529;48.170;17.138;2022-08-21T19:40:30;17.60;78.50
14875;DHT22;7529;48.170;17.138;2022-08-21T19:44:42;17.50;79.10
14875;DHT22;7529;48.170;17.138;2022-08-21T19:48:55;17.50;80.40
14875;DHT22;7529;48.170;17.138;2022-08-21T19:53:08;17.50;81.00
14875;DHT22;7529;48.170;17.138;2022-08-21T19:57:19;17.40;81.00
14875;DHT22;7529;48.170;17.138;2022-08-21T20:01:31;17.40;82.50
14875;DHT22;7529;48.170;17.138;2022-08-21T20:05:42;17.30;83.50
14875;DHT22;7529;48.170;17.138;2022-08-21T20:09:55;17.20;85.10
14875;DHT22;7529;48.170;17.138;2022-08-21T20:14:08;17.20;87.20
14875;DHT22;7529;48.170;17.138;2022-08-21T20:18:21;17.10;88.30
14875;DHT22;7529;48.170;17.138;2022-08-21T20:22:32;17.10;90.10
14875;DHT22;7529;48.170;17.138;2022-08-21T20:26:44;17.10;90.80
14875;DHT22;7529;48.170;17.138;2022-08-21T20:30:56;17.00;91.60
14875;DHT22;7529;48.170;17.138;2022-08-21T20:35:08;17.00;91.80
14875;DHT22;7529;48.170;17.138;2022-08-21T20:39:20;17.00;91.90
14875;DHT22;7529;48.170;17.138;2022-08-21T20:43:34;17.00;92.60
14875;DHT22;7529;48.170;17.138;2022-08-21T20:47:47;17.00;93.40
14875;DHT22;7529;48.170;17.138;2022-08-21T20:51:59;17.00;93.80
14875;DHT22;7529;48.170;17.138;2022-08-21T20:56:16;16.90;93.70
14875;DHT22;7529;48.170;17.138;2022-08-21T21:00:43;16.90;93.50
14875;DHT22;7529;48.170;17.138;2022-08-21T21:09:46;17.00;93.20
14875;DHT22;7529;48.170;17.138;2022-08-21T21:14:06;17.00;93.20
14875;DHT22;7529;48.170;17.138;2022-08-21T21:18:28;17.00;93.90
14875;DHT22;7529;48.170;17.138;2022-08-21T21:22:48;16.90;94.30
14875;DHT22;7529;48.170;17.138;2022-08-21T21:27:10;16.90;95.50
14875;DHT22;7529;48.170;17.138;2022-08-21T21:31:28;16.90;95.50
14875;DHT22;7529;48.170;17.138;2022-08-21T21:35:44;16.90;94.90
14875;DHT22;7529;48.170;17.138;2022-08-21T22:08:19;16.80;95.40
14875;DHT22;7529;48.170;17.138;2022-08-21T22:17:35;16.90;95.70
14875;DHT22;7529;48.170;17.138;2022-08-21T22:22:00;16.90;95.70
14875;DHT22;7529;48.170;17.138;2022-08-21T22:26:49;17.00;95.90
14875;DHT22;7529;48.170;17.138;2022-08-21T22:31:26;17.00;96.00
14875;DHT22;7529;48.170;17.138;2022-08-21T22:35:40;17.00;96.40
14875;DHT22;7529;48.170;17.138;2022-08-21T22:39:53;17.00;95.60
14875;DHT22;7529;48.170;17.138;2022-08-21T22:44:06;17.10;95.70
14875;DHT22;7529;48.170;17.138;2022-08-21T22:48:20;17.10;95.60
14875;DHT22;7529;48.170;17.138;2022-08-21T22:52:35;17.10;95.60
14875;DHT22;7529;48.170;17.138;2022-08-21T22:56:57;17.10;95.60
14875;DHT22;7529;48.170;17.138;2022-08-21T23:05:34;17.10;96.10
14875;DHT22;7529;48.170;17.138;2022-08-21T23:09:47;17.10;95.80
14875;DHT22;7529;48.170;17.138;2022-08-21T23:13:58;17.10;95.70
14875;DHT22;7529;48.170;17.138;2022-08-21T23:22:57;17.10;96.50
14875;DHT22;7529;48.170;17.138;2022-08-21T23:27:35;17.00;96.60
14875;DHT22;7529;48.170;17.138;2022-08-21T23:36:55;17.10;96.90
14875;DHT22;7529;48.170;17.138;2022-08-21T23:42:20;17.20;96.10
14875;DHT22;7529;48.170;17.138;2022-08-21T23:51:15;17.30;96.90
